sensor_id;sensor_type;location;lat;lon;timestamp;pressure;altitude;pressure_sealevel;temperature;humidity
75692;BME280;64307;52.508;6.090;2023-06-10T00:02:15;101566.00;;;19.32;55.95
75692;BME280;64307;52.508;6.090;2023-06-10T00:04:42;101572.91;;;19.31;55.96
75692;BME280;64307;52.508;6.090;2023-06-10T00:07:07;101561.69;;;19.27;55.74
75692;BME280;64307;52.508;6.090;2023-06-10T00:09:37;101568.03;;;19.31;55.51
75692;BME280;64307;52.508;6.090;2023-06-10T00:12:06;101571.13;;;19.21;55.96
75692;BME280;64307;52.508;6.090;2023-06-10T00:14:33;101563.88;;;19.20;55.71
75692;BME280;64307;52.508;6.090;2023-06-10T00:16:59;101560.16;;;19.07;56.25
75692;BME280;64307;52.508;6.090;2023-06-10T00:19:25;101558.56;;;19.06;56.07
75692;BME280;64307;52.508;6.090;2023-06-10T00:21:56;101568.81;;;19.16;55.53
75692;BME280;64307;52.508;6.090;2023-06-10T00:24:21;101568.69;;;19.03;56.17
75692;BME280;64307;52.508;6.090;2023-06-10T00:26:47;101569.16;;;19.02;55.88
75692;BME280;64307;52.508;6.090;2023-06-10T00:29:12;101573.13;;;19.04;55.64
75692;BME280;64307;52.508;6.090;2023-06-10T00:31:38;101578.84;;;19.01;55.67
75692;BME280;64307;52.508;6.090;2023-06-10T00:34:04;101572.09;;;18.95;55.83
75692;BME280;64307;52.508;6.090;2023-06-10T00:36:29;101578.19;;;18.93;55.82
75692;BME280;64307;52.508;6.090;2023-06-10T00:38:55;101577.03;;;18.91;55.78
75692;BME280;64307;52.508;6.090;2023-06-10T00:41:21;101576.28;;;18.90;55.51
75692;BME280;64307;52.508;6.090;2023-06-10T00:43:46;101576.69;;;18.89;55.06
75692;BME280;64307;52.508;6.090;2023-06-10T00:46:11;101575.91;;;18.88;55.17
75692;BME280;64307;52.508;6.090;2023-06-10T00:48:40;101584.06;;;18.83;55.63
75692;BME280;64307;52.508;6.090;2023-06-10T00:51:06;101577.44;;;18.73;55.90
75692;BME280;64307;52.508;6.090;2023-06-10T00:53:35;101577.88;;;18.71;55.63
75692;BME280;64307;52.508;6.090;2023-06-10T00:56:00;101589.09;;;18.75;55.31
75692;BME280;64307;52.508;6.090;2023-06-10T00:58:26;101569.19;;;18.62;55.69
75692;BME280;64307;52.508;6.090;2023-06-10T01:00:52;101576.13;;;18.77;55.09
75692;BME280;64307;52.508;6.090;2023-06-10T01:03:18;101587.19;;;18.68;55.51
75692;BME280;64307;52.508;6.090;2023-06-10T01:05:46;101580.47;;;18.62;55.62
75692;BME280;64307;52.508;6.090;2023-06-10T01:08:20;101582.13;;;18.60;55.67
75692;BME280;64307;52.508;6.090;2023-06-10T01:10:53;101582.22;;;18.56;55.55
75692;BME280;64307;52.508;6.090;2023-06-10T01:13:22;101590.31;;;18.54;55.97
75692;BME280;64307;52.508;6.090;2023-06-10T01:15:49;101583.59;;;18.48;55.97
75692;BME280;64307;52.508;6.090;2023-06-10T01:18:14;101593.22;;;18.51;55.93
75692;BME280;64307;52.508;6.090;2023-06-10T01:20:41;101589.22;;;18.48;56.15
75692;BME280;64307;52.508;6.090;2023-06-10T01:23:09;101591.31;;;18.44;56.05
75692;BME280;64307;52.508;6.090;2023-06-10T01:25:38;101586.66;;;18.34;56.31
75692;BME280;64307;52.508;6.090;2023-06-10T01:28:59;101591.56;;;18.30;56.61
75692;BME280;64307;52.508;6.090;2023-06-10T01:31:38;101594.38;;;18.30;56.74
75692;BME280;64307;52.508;6.090;2023-06-10T01:34:10;101595.31;;;18.24;56.67
75692;BME280;64307;52.508;6.090;2023-06-10T01:36:38;101591.75;;;18.20;57.08
75692;BME280;64307;52.508;6.090;2023-06-10T01:39:07;101597.78;;;18.22;56.99
75692;BME280;64307;52.508;6.090;2023-06-10T01:41:34;101593.13;;;18.12;56.99
75692;BME280;64307;52.508;6.090;2023-06-10T01:44:00;101593.84;;;18.16;57.22
75692;BME280;64307;52.508;6.090;2023-06-10T01:46:25;101586.03;;;18.04;57.86
75692;BME280;64307;52.508;6.090;2023-06-10T01:48:50;101597.72;;;18.02;57.95
75692;BME280;64307;52.508;6.090;2023-06-10T01:51:16;101593.59;;;18.07;57.98
75692;BME280;64307;52.508;6.090;2023-06-10T01:53:41;101597.34;;;18.00;58.37
75692;BME280;64307;52.508;6.090;2023-06-10T01:56:06;101604.28;;;17.95;58.89
75692;BME280;64307;52.508;6.090;2023-06-10T01:58:32;101613.47;;;17.99;58.63
75692;BME280;64307;52.508;6.090;2023-06-10T02:00:57;101595.94;;;17.88;58.85
75692;BME280;64307;52.508;6.090;2023-06-10T02:03:22;101602.44;;;17.85;59.40
75692;BME280;64307;52.508;6.090;2023-06-10T02:05:48;101607.72;;;17.83;59.28
75692;BME280;64307;52.508;6.090;2023-06-10T02:08:14;101598.09;;;17.81;59.48
75692;BME280;64307;52.508;6.090;2023-06-10T02:10:39;101604.94;;;17.80;59.67
75692;BME280;64307;52.508;6.090;2023-06-10T02:13:05;101601.03;;;17.74;60.05
75692;BME280;64307;52.508;6.090;2023-06-10T02:15:31;101609.97;;;17.69;60.50
75692;BME280;64307;52.508;6.090;2023-06-10T02:17:56;101598.81;;;17.62;60.58
75692;BME280;64307;52.508;6.090;2023-06-10T02:20:23;101602.44;;;17.62;60.25
75692;BME280;64307;52.508;6.090;2023-06-10T02:22:48;101602.50;;;17.59;60.32
75692;BME280;64307;52.508;6.090;2023-06-10T02:25:13;101606.09;;;17.59;61.14
75692;BME280;64307;52.508;6.090;2023-06-10T02:27:38;101601.81;;;17.48;61.63
75692;BME280;64307;52.508;6.090;2023-06-10T02:30:04;101602.25;;;17.46;61.41
75692;BME280;64307;52.508;6.090;2023-06-10T02:32:30;101593.22;;;17.32;61.77
75692;BME280;64307;52.508;6.090;2023-06-10T02:34:55;101615.59;;;17.42;62.11
75692;BME280;64307;52.508;6.090;2023-06-10T02:37:20;101621.38;;;17.32;62.25
75692;BME280;64307;52.508;6.090;2023-06-10T02:39:46;101617.44;;;17.26;62.73
75692;BME280;64307;52.508;6.090;2023-06-10T02:42:11;101611.06;;;17.22;62.40
75692;BME280;64307;52.508;6.090;2023-06-10T02:44:37;101606.75;;;17.13;62.97
75692;BME280;64307;52.508;6.090;2023-06-10T02:47:02;101612.75;;;17.15;63.23
75692;BME280;64307;52.508;6.090;2023-06-10T02:49:28;101603.50;;;17.15;63.18
75692;BME280;64307;52.508;6.090;2023-06-10T02:51:53;101612.84;;;17.08;63.69
75692;BME280;64307;52.508;6.090;2023-06-10T02:54:24;101615.22;;;17.10;63.46
75692;BME280;64307;52.508;6.090;2023-06-10T02:56:51;101613.28;;;17.07;64.13
75692;BME280;64307;52.508;6.090;2023-06-10T02:59:17;101615.28;;;17.06;64.13
75692;BME280;64307;52.508;6.090;2023-06-10T03:01:42;101610.09;;;17.05;64.55
75692;BME280;64307;52.508;6.090;2023-06-10T03:04:07;101608.97;;;16.99;64.12
75692;BME280;64307;52.508;6.090;2023-06-10T03:06:34;101608.97;;;16.99;64.97
75692;BME280;64307;52.508;6.090;2023-06-10T03:09:00;101612.28;;;16.90;65.38
75692;BME280;64307;52.508;6.090;2023-06-10T03:11:25;101619.03;;;16.96;65.52
75692;BME280;64307;52.508;6.090;2023-06-10T03:13:51;101625.84;;;16.99;65.61
75692;BME280;64307;52.508;6.090;2023-06-10T03:16:17;101619.47;;;16.95;65.65
75692;BME280;64307;52.508;6.090;2023-06-10T03:18:43;101612.22;;;16.94;66.04
75692;BME280;64307;52.508;6.090;2023-06-10T03:21:08;101618.25;;;16.96;66.16
75692;BME280;64307;52.508;6.090;2023-06-10T03:23:34;101621.91;;;16.93;66.45
75692;BME280;64307;52.508;6.090;2023-06-10T03:25:59;101618.34;;;16.89;66.73
75692;BME280;64307;52.508;6.090;2023-06-10T03:28:25;101614.72;;;16.88;67.02
75692;BME280;64307;52.508;6.090;2023-06-10T03:30:50;101629.25;;;16.83;66.88
75692;BME280;64307;52.508;6.090;2023-06-10T03:33:16;101623.22;;;16.85;67.23
75692;BME280;64307;52.508;6.090;2023-06-10T03:35:42;101618.53;;;16.75;67.39
75692;BME280;64307;52.508;6.090;2023-06-10T03:38:07;101616.97;;;16.70;67.62
75692;BME280;64307;52.508;6.090;2023-06-10T03:40:32;101617.38;;;16.69;68.13
75692;BME280;64307;52.508;6.090;2023-06-10T03:42:58;101627.75;;;16.75;68.11
75692;BME280;64307;52.508;6.090;2023-06-10T03:45:23;101636.56;;;16.77;67.82
75692;BME280;64307;52.508;6.090;2023-06-10T03:47:49;101639.47;;;16.70;68.38
75692;BME280;64307;52.508;6.090;2023-06-10T03:50:15;101627.09;;;16.61;68.59
75692;BME280;64307;52.508;6.090;2023-06-10T03:52:42;101632.34;;;16.62;68.74
75692;BME280;64307;52.508;6.090;2023-06-10T03:55:07;101633.59;;;16.58;68.93
75692;BME280;64307;52.508;6.090;2023-06-10T03:57:33;101633.53;;;16.61;68.91
75692;BME280;64307;52.508;6.090;2023-06-10T03:59:58;101639.91;;;16.65;68.88
75692;BME280;64307;52.508;6.090;2023-06-10T04:02:23;101644.78;;;16.61;69.17
75692;BME280;64307;52.508;6.090;2023-06-10T04:04:49;101635.59;;;16.57;69.05
75692;BME280;64307;52.508;6.090;2023-06-10T04:07:14;101639.53;;;16.63;69.35
75692;BME280;64307;52.508;6.090;2023-06-10T04:09:39;101637.47;;;16.67;69.48
75692;BME280;64307;52.508;6.090;2023-06-10T04:12:05;101637.38;;;16.78;69.06
75692;BME280;64307;52.508;6.090;2023-06-10T04:14:35;101635.06;;;16.69;69.45
75692;BME280;64307;52.508;6.090;2023-06-10T04:17:05;101633.91;;;16.97;68.65
75692;BME280;64307;52.508;6.090;2023-06-10T04:19:33;101637.22;;;18.88;62.28
75692;BME280;64307;52.508;6.090;2023-06-10T04:22:00;101630.19;;;19.83;58.40
75692;BME280;64307;52.508;6.090;2023-06-10T04:24:26;101639.94;;;19.98;58.22
75692;BME280;64307;52.508;6.090;2023-06-10T04:26:51;101643.63;;;19.63;58.95
75692;BME280;64307;52.508;6.090;2023-06-10T04:29:16;101646.63;;;20.94;55.33
75692;BME280;64307;52.508;6.090;2023-06-10T04:31:42;101649.53;;;20.78;55.12
75692;BME280;64307;52.508;6.090;2023-06-10T04:34:07;101647.28;;;20.85;54.53
75692;BME280;64307;52.508;6.090;2023-06-10T04:36:32;101653.66;;;21.31;54.00
75692;BME280;64307;52.508;6.090;2023-06-10T04:38:58;101649.75;;;22.72;50.31
75692;BME280;64307;52.508;6.090;2023-06-10T04:41:24;101657.56;;;21.99;51.91
75692;BME280;64307;52.508;6.090;2023-06-10T04:43:51;101649.75;;;20.71;54.86
75692;BME280;64307;52.508;6.090;2023-06-10T04:46:16;101664.56;;;22.08;51.29
75692;BME280;64307;52.508;6.090;2023-06-10T04:48:42;101652.00;;;22.43;50.85
75692;BME280;64307;52.508;6.090;2023-06-10T04:51:07;101654.84;;;22.77;49.86
75692;BME280;64307;52.508;6.090;2023-06-10T04:53:32;101650.91;;;22.28;50.78
75692;BME280;64307;52.508;6.090;2023-06-10T04:55:57;101660.28;;;22.84;50.37
75692;BME280;64307;52.508;6.090;2023-06-10T04:58:23;101655.69;;;22.87;49.56
75692;BME280;64307;52.508;6.090;2023-06-10T05:00:48;101665.44;;;22.17;51.28
75692;BME280;64307;52.508;6.090;2023-06-10T05:03:14;101658.41;;;23.33;48.53
75692;BME280;64307;52.508;6.090;2023-06-10T05:05:40;101655.94;;;22.58;50.52
75692;BME280;64307;52.508;6.090;2023-06-10T05:08:05;101657.97;;;22.11;50.48
75692;BME280;64307;52.508;6.090;2023-06-10T05:10:30;101646.44;;;22.95;49.18
75692;BME280;64307;52.508;6.090;2023-06-10T05:12:57;101650.94;;;23.57;47.30
75692;BME280;64307;52.508;6.090;2023-06-10T05:15:23;101643.44;;;23.73;47.83
75692;BME280;64307;52.508;6.090;2023-06-10T05:17:48;101651.41;;;23.96;46.52
75692;BME280;64307;52.508;6.090;2023-06-10T05:20:13;101648.97;;;24.43;46.26
75692;BME280;64307;52.508;6.090;2023-06-10T05:22:40;101649.78;;;23.77;46.54
75692;BME280;64307;52.508;6.090;2023-06-10T05:25:06;101657.78;;;23.69;47.43
75692;BME280;64307;52.508;6.090;2023-06-10T05:27:31;101645.50;;;24.57;45.07
75692;BME280;64307;52.508;6.090;2023-06-10T05:29:57;101649.94;;;25.03;44.39
75692;BME280;64307;52.508;6.090;2023-06-10T05:32:25;101670.34;;;25.11;43.03
75692;BME280;64307;52.508;6.090;2023-06-10T05:34:50;101659.28;;;23.83;46.92
75692;BME280;64307;52.508;6.090;2023-06-10T05:37:15;101659.13;;;24.44;45.58
75692;BME280;64307;52.508;6.090;2023-06-10T05:39:40;101658.81;;;24.42;45.75
75692;BME280;64307;52.508;6.090;2023-06-10T05:42:07;101662.94;;;26.92;40.31
75692;BME280;64307;52.508;6.090;2023-06-10T05:44:33;101666.91;;;27.67;39.43
75692;BME280;64307;52.508;6.090;2023-06-10T05:46:58;101659.66;;;25.89;41.58
75692;BME280;64307;52.508;6.090;2023-06-10T05:49:23;101661.22;;;28.77;36.68
75692;BME280;64307;52.508;6.090;2023-06-10T05:51:49;101668.59;;;27.01;39.26
75692;BME280;64307;52.508;6.090;2023-06-10T05:54:14;101669.75;;;26.70;39.77
75692;BME280;64307;52.508;6.090;2023-06-10T05:56:40;101670.41;;;25.62;42.05
75692;BME280;64307;52.508;6.090;2023-06-10T05:59:05;101670.41;;;26.51;40.22
75692;BME280;64307;52.508;6.090;2023-06-10T06:01:30;101668.88;;;27.03;39.84
75692;BME280;64307;52.508;6.090;2023-06-10T06:03:56;101671.66;;;24.74;44.46
75692;BME280;64307;52.508;6.090;2023-06-10T06:06:21;101671.13;;;26.60;40.84
75692;BME280;64307;52.508;6.090;2023-06-10T06:08:46;101667.25;;;26.25;41.66
75692;BME280;64307;52.508;6.090;2023-06-10T06:11:12;101664.47;;;25.33;43.19
75692;BME280;64307;52.508;6.090;2023-06-10T06:13:37;101666.47;;;26.48;40.36
75692;BME280;64307;52.508;6.090;2023-06-10T06:16:02;101656.69;;;27.46;38.55
75692;BME280;64307;52.508;6.090;2023-06-10T06:18:28;101667.56;;;25.94;41.47
75692;BME280;64307;52.508;6.090;2023-06-10T06:20:53;101669.25;;;26.10;42.45
75692;BME280;64307;52.508;6.090;2023-06-10T06:23:18;101646.38;;;28.58;37.13
75692;BME280;64307;52.508;6.090;2023-06-10T06:25:44;101660.75;;;28.23;37.10
75692;BME280;64307;52.508;6.090;2023-06-10T06:28:09;101659.44;;;27.11;40.63
75692;BME280;64307;52.508;6.090;2023-06-10T06:30:35;101658.53;;;27.20;39.40
75692;BME280;64307;52.508;6.090;2023-06-10T06:33:01;101657.56;;;26.46;40.80
75692;BME280;64307;52.508;6.090;2023-06-10T06:35:26;101665.66;;;28.58;36.90
75692;BME280;64307;52.508;6.090;2023-06-10T06:37:51;101670.50;;;28.52;36.64
75692;BME280;64307;52.508;6.090;2023-06-10T06:40:16;101671.50;;;27.94;37.96
75692;BME280;64307;52.508;6.090;2023-06-10T06:42:42;101669.03;;;29.84;34.39
75692;BME280;64307;52.508;6.090;2023-06-10T06:45:07;101661.78;;;30.31;33.56
75692;BME280;64307;52.508;6.090;2023-06-10T06:47:33;101668.66;;;28.49;37.21
75692;BME280;64307;52.508;6.090;2023-06-10T06:49:58;101657.50;;;29.79;34.79
75692;BME280;64307;52.508;6.090;2023-06-10T06:52:23;101663.22;;;28.51;35.66
75692;BME280;64307;52.508;6.090;2023-06-10T06:54:48;101661.91;;;28.72;35.96
75692;BME280;64307;52.508;6.090;2023-06-10T06:57:14;101663.72;;;31.48;31.50
75692;BME280;64307;52.508;6.090;2023-06-10T06:59:39;101666.06;;;28.30;36.48
75692;BME280;64307;52.508;6.090;2023-06-10T07:02:05;101666.16;;;30.80;32.60
75692;BME280;64307;52.508;6.090;2023-06-10T07:04:30;101666.88;;;27.96;38.04
75692;BME280;64307;52.508;6.090;2023-06-10T07:06:56;101669.44;;;31.82;31.22
75692;BME280;64307;52.508;6.090;2023-06-10T07:09:21;101669.75;;;29.43;34.46
75692;BME280;64307;52.508;6.090;2023-06-10T07:11:46;101673.88;;;27.95;37.37
75692;BME280;64307;52.508;6.090;2023-06-10T07:14:12;101675.03;;;27.69;38.14
75692;BME280;64307;52.508;6.090;2023-06-10T07:16:37;101668.44;;;30.54;33.04
75692;BME280;64307;52.508;6.090;2023-06-10T07:19:02;101668.78;;;30.73;33.48
75692;BME280;64307;52.508;6.090;2023-06-10T07:21:29;101687.00;;;31.39;31.24
75692;BME280;64307;52.508;6.090;2023-06-10T07:23:55;101677.56;;;30.10;33.84
75692;BME280;64307;52.508;6.090;2023-06-10T07:26:23;101679.34;;;29.97;34.13
75692;BME280;64307;52.508;6.090;2023-06-10T07:28:48;101679.97;;;30.17;33.26
75692;BME280;64307;52.508;6.090;2023-06-10T07:31:14;101673.84;;;29.67;34.90
75692;BME280;64307;52.508;6.090;2023-06-10T07:33:40;101679.88;;;27.63;37.62
75692;BME280;64307;52.508;6.090;2023-06-10T07:36:06;101673.97;;;29.78;33.65
75692;BME280;64307;52.508;6.090;2023-06-10T07:38:31;101678.72;;;29.56;34.15
75692;BME280;64307;52.508;6.090;2023-06-10T07:40:56;101681.22;;;28.16;37.57
75692;BME280;64307;52.508;6.090;2023-06-10T07:43:22;101678.25;;;27.76;38.07
75692;BME280;64307;52.508;6.090;2023-06-10T07:45:47;101688.06;;;26.49;40.33
75692;BME280;64307;52.508;6.090;2023-06-10T07:48:12;101681.06;;;27.56;39.55
75692;BME280;64307;52.508;6.090;2023-06-10T07:50:38;101686.19;;;27.52;38.69
75692;BME280;64307;52.508;6.090;2023-06-10T07:53:03;101691.06;;;28.10;38.35
75692;BME280;64307;52.508;6.090;2023-06-10T07:55:29;101703.59;;;26.48;40.58
75692;BME280;64307;52.508;6.090;2023-06-10T07:57:54;101698.13;;;26.59;40.40
75692;BME280;64307;52.508;6.090;2023-06-10T08:00:20;101696.03;;;27.66;38.81
75692;BME280;64307;52.508;6.090;2023-06-10T08:02:46;101687.22;;;27.98;38.29
75692;BME280;64307;52.508;6.090;2023-06-10T08:05:11;101692.47;;;27.27;38.96
75692;BME280;64307;52.508;6.090;2023-06-10T08:07:37;101691.63;;;26.97;39.28
75692;BME280;64307;52.508;6.090;2023-06-10T08:10:02;101683.53;;;27.34;39.05
75692;BME280;64307;52.508;6.090;2023-06-10T08:12:29;101682.38;;;28.24;37.13
75692;BME280;64307;52.508;6.090;2023-06-10T08:14:55;101694.25;;;27.68;37.71
75692;BME280;64307;52.508;6.090;2023-06-10T08:17:20;101686.88;;;26.80;39.21
75692;BME280;64307;52.508;6.090;2023-06-10T08:19:46;101693.75;;;25.93;40.95
75692;BME280;64307;52.508;6.090;2023-06-10T08:22:11;101683.69;;;28.23;36.72
75692;BME280;64307;52.508;6.090;2023-06-10T08:24:37;101693.38;;;27.33;38.85
75692;BME280;64307;52.508;6.090;2023-06-10T08:27:02;101683.59;;;27.83;38.56
75692;BME280;64307;52.508;6.090;2023-06-10T08:29:27;101705.78;;;27.15;40.00
75692;BME280;64307;52.508;6.090;2023-06-10T08:31:54;101689.94;;;27.43;38.95
75692;BME280;64307;52.508;6.090;2023-06-10T08:34:20;101682.00;;;27.97;38.63
75692;BME280;64307;52.508;6.090;2023-06-10T08:36:45;101684.94;;;28.02;38.08
75692;BME280;64307;52.508;6.090;2023-06-10T08:39:10;101688.97;;;26.94;39.03
75692;BME280;64307;52.508;6.090;2023-06-10T08:41:41;101693.81;;;26.88;39.26
75692;BME280;64307;52.508;6.090;2023-06-10T08:44:22;101680.41;;;27.08;38.52
75692;BME280;64307;52.508;6.090;2023-06-10T08:46:53;101701.06;;;26.74;39.42
75692;BME280;64307;52.508;6.090;2023-06-10T08:49:19;101693.28;;;29.01;36.10
75692;BME280;64307;52.508;6.090;2023-06-10T08:51:48;101689.34;;;27.69;37.25
75692;BME280;64307;52.508;6.090;2023-06-10T08:54:22;101692.69;;;28.16;38.22
75692;BME280;64307;52.508;6.090;2023-06-10T08:56:51;101689.16;;;28.62;37.31
75692;BME280;64307;52.508;6.090;2023-06-10T08:59:16;101698.09;;;29.92;34.50
75692;BME280;64307;52.508;6.090;2023-06-10T09:01:43;101688.16;;;28.45;36.20
75692;BME280;64307;52.508;6.090;2023-06-10T09:04:08;101680.25;;;27.70;37.13
75692;BME280;64307;52.508;6.090;2023-06-10T09:06:34;101693.22;;;29.16;35.66
75692;BME280;64307;52.508;6.090;2023-06-10T09:09:01;101694.47;;;28.69;36.37
75692;BME280;64307;52.508;6.090;2023-06-10T09:11:27;101703.75;;;28.44;35.41
75692;BME280;64307;52.508;6.090;2023-06-10T09:13:52;101694.19;;;28.67;34.95
75692;BME280;64307;52.508;6.090;2023-06-10T09:16:18;101695.22;;;28.29;35.75
75692;BME280;64307;52.508;6.090;2023-06-10T09:18:43;101689.97;;;28.62;35.89
75692;BME280;64307;52.508;6.090;2023-06-10T09:21:09;101686.75;;;29.21;35.67
75692;BME280;64307;52.508;6.090;2023-06-10T09:23:35;101688.88;;;29.26;35.34
75692;BME280;64307;52.508;6.090;2023-06-10T09:26:01;101680.94;;;30.40;33.46
75692;BME280;64307;52.508;6.090;2023-06-10T09:28:29;101691.09;;;30.41;32.37
75692;BME280;64307;52.508;6.090;2023-06-10T09:31:04;101688.34;;;29.53;33.68
75692;BME280;64307;52.508;6.090;2023-06-10T09:33:37;101685.72;;;28.78;34.37
75692;BME280;64307;52.508;6.090;2023-06-10T09:36:02;101673.81;;;28.85;34.48
75692;BME280;64307;52.508;6.090;2023-06-10T09:38:32;101679.34;;;29.97;33.28
75692;BME280;64307;52.508;6.090;2023-06-10T09:40:58;101681.00;;;31.71;31.39
75692;BME280;64307;52.508;6.090;2023-06-10T09:43:39;101679.03;;;30.90;32.12
75692;BME280;64307;52.508;6.090;2023-06-10T09:46:05;101680.75;;;29.50;33.76
75692;BME280;64307;52.508;6.090;2023-06-10T09:48:34;101675.69;;;31.08;31.68
75692;BME280;64307;52.508;6.090;2023-06-10T09:51:00;101677.06;;;31.63;30.32
75692;BME280;64307;52.508;6.090;2023-06-10T09:53:25;101678.78;;;30.88;30.53
75692;BME280;64307;52.508;6.090;2023-06-10T09:55:51;101681.72;;;31.32;30.28
75692;BME280;64307;52.508;6.090;2023-06-10T09:58:17;101676.88;;;30.68;31.59
75692;BME280;64307;52.508;6.090;2023-06-10T10:00:42;101680.44;;;30.10;31.91
75692;BME280;64307;52.508;6.090;2023-06-10T10:03:07;101678.38;;;30.11;31.25
75692;BME280;64307;52.508;6.090;2023-06-10T10:05:32;101677.19;;;29.60;31.65
75692;BME280;64307;52.508;6.090;2023-06-10T10:07:58;101674.78;;;29.84;31.47
75692;BME280;64307;52.508;6.090;2023-06-10T10:10:23;101679.63;;;30.46;31.21
75692;BME280;64307;52.508;6.090;2023-06-10T10:12:53;101675.94;;;31.10;30.48
75692;BME280;64307;52.508;6.090;2023-06-10T10:15:21;101680.16;;;31.15;30.97
75692;BME280;64307;52.508;6.090;2023-06-10T10:18:07;101672.97;;;30.83;30.70
75692;BME280;64307;52.508;6.090;2023-06-10T10:20:38;101675.63;;;30.86;31.22
75692;BME280;64307;52.508;6.090;2023-06-10T10:23:08;101669.25;;;30.60;31.54
75692;BME280;64307;52.508;6.090;2023-06-10T10:25:37;101673.38;;;30.48;30.37
75692;BME280;64307;52.508;6.090;2023-06-10T10:28:12;101669.03;;;30.75;30.97
75692;BME280;64307;52.508;6.090;2023-06-10T10:30:44;101668.19;;;30.57;31.01
75692;BME280;64307;52.508;6.090;2023-06-10T10:33:32;101669.91;;;30.38;30.85
75692;BME280;64307;52.508;6.090;2023-06-10T10:36:00;101664.25;;;30.60;30.86
75692;BME280;64307;52.508;6.090;2023-06-10T10:38:25;101656.09;;;31.79;30.14
75692;BME280;64307;52.508;6.090;2023-06-10T10:40:53;101662.09;;;31.14;30.82
75692;BME280;64307;52.508;6.090;2023-06-10T10:43:20;101656.31;;;31.03;30.80
75692;BME280;64307;52.508;6.090;2023-06-10T10:45:46;101660.94;;;30.84;30.76
75692;BME280;64307;52.508;6.090;2023-06-10T10:48:23;101644.44;;;30.68;31.28
75692;BME280;64307;52.508;6.090;2023-06-10T10:50:56;101657.44;;;31.56;31.21
75692;BME280;64307;52.508;6.090;2023-06-10T10:53:22;101661.28;;;31.08;31.85
75692;BME280;64307;52.508;6.090;2023-06-10T10:56:07;101656.41;;;30.50;31.77
75692;BME280;64307;52.508;6.090;2023-06-10T10:58:33;101643.50;;;30.34;31.76
75692;BME280;64307;52.508;6.090;2023-06-10T11:01:10;101647.88;;;30.24;32.12
75692;BME280;64307;52.508;6.090;2023-06-10T11:03:42;101638.34;;;30.07;32.66
75692;BME280;64307;52.508;6.090;2023-06-10T11:06:15;101637.28;;;30.47;32.09
75692;BME280;64307;52.508;6.090;2023-06-10T11:11:24;101641.03;;;30.75;30.97
75692;BME280;64307;52.508;6.090;2023-06-10T11:16:38;101631.75;;;30.38;31.90
75692;BME280;64307;52.508;6.090;2023-06-10T11:19:05;101631.00;;;30.43;31.28
75692;BME280;64307;52.508;6.090;2023-06-10T11:21:30;101636.97;;;31.31;31.57
75692;BME280;64307;52.508;6.090;2023-06-10T11:23:58;101629.88;;;32.04;30.61
75692;BME280;64307;52.508;6.090;2023-06-10T11:31:22;101627.63;;;29.97;31.83
75692;BME280;64307;52.508;6.090;2023-06-10T11:33:53;101624.25;;;30.51;31.05
75692;BME280;64307;52.508;6.090;2023-06-10T11:36:18;101621.03;;;31.36;30.16
75692;BME280;64307;52.508;6.090;2023-06-10T11:38:44;101625.25;;;30.43;30.77
75692;BME280;64307;52.508;6.090;2023-06-10T11:41:11;101627.38;;;30.48;31.13
75692;BME280;64307;52.508;6.090;2023-06-10T11:43:37;101620.72;;;30.95;30.58
75692;BME280;64307;52.508;6.090;2023-06-10T11:46:02;101618.91;;;31.09;30.29
75692;BME280;64307;52.508;6.090;2023-06-10T11:48:27;101622.22;;;30.68;29.79
75692;BME280;64307;52.508;6.090;2023-06-10T11:50:56;101618.19;;;29.90;30.95
75692;BME280;64307;52.508;6.090;2023-06-10T11:53:25;101614.91;;;30.20;30.35
75692;BME280;64307;52.508;6.090;2023-06-10T11:55:51;101603.13;;;30.12;30.77
75692;BME280;64307;52.508;6.090;2023-06-10T11:58:20;101617.31;;;31.02;30.36
75692;BME280;64307;52.508;6.090;2023-06-10T12:00:52;101610.94;;;30.59;30.33
75692;BME280;64307;52.508;6.090;2023-06-10T12:03:19;101611.00;;;29.44;30.14
75692;BME280;64307;52.508;6.090;2023-06-10T12:06:05;101611.59;;;29.84;31.00
75692;BME280;64307;52.508;6.090;2023-06-10T12:08:31;101606.91;;;29.87;30.17
75692;BME280;64307;52.508;6.090;2023-06-10T12:10:57;101615.56;;;30.40;29.35
75692;BME280;64307;52.508;6.090;2023-06-10T12:13:23;101609.41;;;30.11;29.60
75692;BME280;64307;52.508;6.090;2023-06-10T12:15:49;101599.69;;;30.56;29.51
75692;BME280;64307;52.508;6.090;2023-06-10T12:18:22;101598.09;;;30.55;29.65
75692;BME280;64307;52.508;6.090;2023-06-10T12:20:47;101603.50;;;30.31;29.65
75692;BME280;64307;52.508;6.090;2023-06-10T12:23:17;101605.44;;;30.56;29.52
75692;BME280;64307;52.508;6.090;2023-06-10T12:25:54;101600.75;;;30.75;26.72
75692;BME280;64307;52.508;6.090;2023-06-10T12:30:48;101589.44;;;29.90;28.08
75692;BME280;64307;52.508;6.090;2023-06-10T12:33:17;101600.53;;;30.79;27.19
75692;BME280;64307;52.508;6.090;2023-06-10T12:35:52;101588.50;;;30.10;26.50
75692;BME280;64307;52.508;6.090;2023-06-10T12:38:24;101590.09;;;30.92;26.22
75692;BME280;64307;52.508;6.090;2023-06-10T12:40:52;101587.31;;;29.85;26.26
75692;BME280;64307;52.508;6.090;2023-06-10T12:43:22;101582.38;;;30.45;25.58
75692;BME280;64307;52.508;6.090;2023-06-10T12:45:47;101587.75;;;30.21;25.09
75692;BME280;64307;52.508;6.090;2023-06-10T12:48:23;101577.09;;;29.84;26.61
75692;BME280;64307;52.508;6.090;2023-06-10T12:50:57;101581.34;;;30.48;27.22
75692;BME280;64307;52.508;6.090;2023-06-10T12:53:23;101578.22;;;30.62;25.31
75692;BME280;64307;52.508;6.090;2023-06-10T12:55:50;101585.75;;;30.38;25.47
75692;BME280;64307;52.508;6.090;2023-06-10T12:58:16;101570.19;;;30.13;25.53
75692;BME280;64307;52.508;6.090;2023-06-10T13:00:41;101574.69;;;30.95;25.23
75692;BME280;64307;52.508;6.090;2023-06-10T13:03:09;101573.53;;;30.54;26.23